createdAt,value
2019-03-04T00:01:33.463Z,97078.38
2019-03-04T00:04:00.052Z,97068.14
2019-03-04T00:06:26.590Z,97061.59
2019-03-04T00:08:53.263Z,97068.67
2019-03-04T00:11:19.888Z,97081.53
2019-03-04T00:13:47.053Z,97070.12
2019-03-04T00:16:13.606Z,97062.05
2019-03-04T00:18:40.287Z,97043.84
2019-03-04T00:21:06.942Z,97031.58
2019-03-04T00:23:33.842Z,97041.14
2019-03-04T00:26:00.362Z,97032.10
2019-03-04T00:28:26.954Z,97013.36
2019-03-04T00:30:54.142Z,97023.50
2019-03-04T00:33:20.806Z,97022.78
2019-03-04T00:35:47.359Z,97013.61
2019-03-04T00:38:13.980Z,97016.70
2019-03-04T00:40:40.593Z,97017.80
2019-03-04T00:43:07.145Z,97015.77
2019-03-04T00:45:33.799Z,97018.58
2019-03-04T00:48:00.717Z,97021.66
2019-03-04T00:50:27.318Z,97020.80
2019-03-04T00:52:53.873Z,97038.70
2019-03-04T00:55:20.671Z,97041.03
2019-03-04T00:57:47.276Z,97050.31
2019-03-04T01:00:17.773Z,97052.27
2019-03-04T01:02:45.498Z,97066.75
2019-03-04T01:05:12.177Z,97060.52
2019-03-04T01:07:39.993Z,97065.66
2019-03-04T01:10:06.734Z,97058.36
2019-03-04T01:12:33.417Z,97047.30
2019-03-04T01:15:00.219Z,97048.08
2019-03-04T01:17:26.819Z,97049.59
2019-03-04T01:19:53.799Z,97047.82
2019-03-04T01:22:21.695Z,97030.64
2019-03-04T01:24:48.351Z,97012.20
2019-03-04T01:27:15.005Z,97005.33
2019-03-04T01:29:42.379Z,97007.14
2019-03-04T01:32:08.956Z,97008.60
2019-03-04T01:34:35.722Z,97003.87
2019-03-04T01:37:02.502Z,96998.11
2019-03-04T01:39:29.193Z,96988.27
2019-03-04T01:41:55.742Z,96998.47
2019-03-04T01:44:25.553Z,96982.34
2019-03-04T01:46:52.246Z,96973.55
2019-03-04T01:49:18.840Z,96953.40
2019-03-04T01:51:45.701Z,96955.17
2019-03-04T01:54:12.427Z,96940.70
2019-03-04T01:56:39.403Z,96932.60
2019-03-04T01:59:05.998Z,96938.97
2019-03-04T02:01:32.618Z,96932.56
2019-03-04T02:03:59.593Z,96930.67
2019-03-04T02:06:26.441Z,96913.80
2019-03-04T02:08:52.963Z,96903.77
2019-03-04T02:11:19.581Z,96896.67
2019-03-04T02:13:46.223Z,96889.52
2019-03-04T02:16:13.091Z,96876.52
2019-03-04T02:18:40.896Z,96880.56
2019-03-04T02:21:08.012Z,96859.98
2019-03-04T02:23:34.692Z,96846.85
2019-03-04T02:26:09.870Z,96844.03
2019-03-04T02:28:36.685Z,96840.56
2019-03-04T02:31:03.796Z,96833.41
2019-03-04T02:33:30.573Z,96827.73
2019-03-04T02:35:57.186Z,96818.08
2019-03-04T02:38:23.912Z,96817.66
2019-03-04T02:40:50.490Z,96808.52
2019-03-04T02:43:17.569Z,96809.53
2019-03-04T02:45:44.184Z,96810.62
2019-03-04T02:48:10.722Z,96806.23
2019-03-04T02:50:37.248Z,96799.87
2019-03-04T02:53:03.764Z,96794.95
2019-03-04T02:55:30.393Z,96800.73
2019-03-04T02:57:56.919Z,96806.52
2019-03-04T03:00:23.702Z,96814.10
2019-03-04T03:02:50.564Z,96812.11
2019-03-04T03:05:17.313Z,96814.36
2019-03-04T03:07:44.012Z,96816.00
2019-03-04T03:10:10.854Z,96802.84
2019-03-04T03:12:37.998Z,96799.61
2019-03-04T03:15:05.062Z,96803.58
2019-03-04T03:17:31.666Z,96809.66
2019-03-04T03:19:58.159Z,96794.61
2019-03-04T03:22:25.815Z,96794.77
2019-03-04T03:24:52.375Z,96789.66
2019-03-04T03:27:18.980Z,96779.38
2019-03-04T03:29:46.119Z,96782.48
2019-03-04T03:32:12.928Z,96775.09
2019-03-04T03:34:39.621Z,96773.02
2019-03-04T03:37:06.131Z,96771.61
2019-03-04T03:39:33.252Z,96772.23
2019-03-04T03:41:59.869Z,96755.18
2019-03-04T03:44:26.404Z,96729.50
2019-03-04T03:46:52.968Z,96722.94
2019-03-04T03:49:19.719Z,96696.47
2019-03-04T03:51:46.674Z,96685.28
2019-03-04T03:54:13.502Z,96675.02
2019-03-04T03:56:40.014Z,96677.31
2019-03-04T03:59:06.754Z,96674.22
2019-03-04T04:01:33.634Z,96665.97
2019-03-04T04:04:00.237Z,96663.30
2019-03-04T04:06:27.108Z,96669.66
2019-03-04T04:08:53.855Z,96676.92
2019-03-04T04:11:20.828Z,96681.62
2019-03-04T04:13:47.488Z,96690.34
2019-03-04T04:16:14.080Z,96661.59
2019-03-04T04:18:40.751Z,96664.05
2019-03-04T04:21:07.285Z,96682.58
2019-03-04T04:23:34.163Z,96661.25
2019-03-04T04:26:01.157Z,96683.11
2019-03-04T04:28:29.609Z,96672.60
2019-03-04T04:30:56.139Z,96673.25
2019-03-04T04:33:23.840Z,96649.13
2019-03-04T04:35:53.451Z,96680.66
2019-03-04T04:38:20.027Z,96672.54
2019-03-04T04:40:46.952Z,96664.25
2019-03-04T04:43:13.713Z,96667.00
2019-03-04T04:45:43.253Z,96645.83
2019-03-04T04:48:11.967Z,96636.81
2019-03-04T04:50:38.484Z,96623.77
2019-03-04T04:53:05.053Z,96618.89
2019-03-04T04:55:31.962Z,96617.05
2019-03-04T04:57:58.586Z,96616.03
2019-03-04T05:00:25.137Z,96621.14
2019-03-04T05:02:51.898Z,96611.59
2019-03-04T05:05:19.032Z,96614.16
2019-03-04T05:07:45.938Z,96589.45
2019-03-04T05:10:14.539Z,96592.36
2019-03-04T05:12:41.599Z,96586.82
2019-03-04T05:15:09.274Z,96579.61
2019-03-04T05:17:35.923Z,96571.73
2019-03-04T05:20:03.164Z,96565.27
2019-03-04T05:22:29.770Z,96579.63
2019-03-04T05:24:56.444Z,96577.27
2019-03-04T05:27:23.194Z,96578.06
2019-03-04T05:29:51.411Z,96585.56
2019-03-04T05:32:18.391Z,96576.19
2019-03-04T05:34:45.018Z,96584.80
2019-03-04T05:37:11.746Z,96574.35
2019-03-04T05:39:38.496Z,96569.20
2019-03-04T05:42:05.357Z,96563.20
2019-03-04T05:44:32.045Z,96567.52
2019-03-04T05:46:58.549Z,96550.14
2019-03-04T05:49:25.274Z,96536.58
2019-03-04T05:51:52.034Z,96538.59
2019-03-04T05:54:18.683Z,96510.52
2019-03-04T05:56:46.631Z,96525.64
2019-03-04T05:59:19.736Z,96518.37
2019-03-04T06:01:49.595Z,96516.98
2019-03-04T06:04:16.254Z,96508.67
2019-03-04T06:06:48.931Z,96509.95
2019-03-04T06:09:15.826Z,96481.89
2019-03-04T06:11:42.539Z,96476.13
2019-03-04T06:14:09.400Z,96469.56
2019-03-04T06:16:46.808Z,96448.33
2019-03-04T06:19:06.568Z,96446.73
2019-03-04T06:21:33.657Z,96431.25
2019-03-04T06:24:01.566Z,96429.38
2019-03-04T06:26:28.355Z,96420.90
2019-03-04T06:28:55.995Z,96393.52
2019-03-04T06:31:22.725Z,96382.08
2019-03-04T06:33:49.488Z,96387.33
2019-03-04T06:36:16.315Z,96381.73
2019-03-04T06:38:43.261Z,96375.36
2019-03-04T06:41:10.210Z,96362.48
2019-03-04T06:43:37.077Z,96340.61
2019-03-04T06:46:03.768Z,96335.85
2019-03-04T06:48:34.498Z,96330.34
2019-03-04T06:51:05.466Z,96335.44
2019-03-04T06:54:02.828Z,96328.59
2019-03-04T06:56:36.473Z,96318.47
2019-03-04T06:59:25.598Z,96294.60
2019-03-04T07:01:55.544Z,96299.33
2019-03-04T07:04:30.689Z,96297.27
2019-03-04T07:06:57.706Z,96318.56
2019-03-04T07:09:24.695Z,96300.06
2019-03-04T07:11:52.172Z,96283.64
2019-03-04T07:14:19.261Z,96276.23
2019-03-04T07:16:48.842Z,96282.50
2019-03-04T07:19:19.890Z,96264.56
2019-03-04T07:21:48.128Z,96273.59
2019-03-04T07:24:14.902Z,96262.88
2019-03-04T07:26:41.489Z,96278.86
2019-03-04T07:29:08.161Z,96266.25
2019-03-04T07:31:35.002Z,96270.08
2019-03-04T07:34:01.955Z,96279.28
2019-03-04T07:36:28.751Z,96282.17
2019-03-04T07:38:57.087Z,96292.53
2019-03-04T07:41:24.539Z,96290.28
2019-03-04T07:43:51.378Z,96310.85
2019-03-04T07:46:18.303Z,96307.58
2019-03-04T07:48:45.035Z,96320.36
2019-03-04T07:51:12.796Z,96312.43
2019-03-04T07:53:46.389Z,96317.86
2019-03-04T07:56:09.171Z,96326.23
2019-03-04T07:58:38.271Z,96316.80
2019-03-04T08:01:05.023Z,96330.47
2019-03-04T08:03:32.041Z,96325.45
2019-03-04T08:05:59.281Z,96327.45
2019-03-04T08:08:25.943Z,96352.05
2019-03-04T08:11:46.698Z,96361.97
2019-03-04T08:14:13.378Z,96368.77
2019-03-04T08:16:40.455Z,96389.07
2019-03-04T08:19:07.153Z,96408.28
2019-03-04T08:21:33.771Z,96334.58
2019-03-04T08:24:01.397Z,96317.84
2019-03-04T08:26:28.231Z,96272.92
2019-03-04T08:28:54.858Z,96259.20
2019-03-04T08:31:23.951Z,96262.06
2019-03-04T08:33:53.459Z,96252.48
2019-03-04T08:36:20.043Z,96239.98
2019-03-04T08:38:47.932Z,96223.70
2019-03-04T08:41:14.500Z,96197.61
2019-03-04T08:43:41.476Z,96140.92
2019-03-04T08:46:08.740Z,96127.21
2019-03-04T08:48:35.517Z,96126.61
2019-03-04T08:51:02.522Z,96131.51
2019-03-04T08:53:31.069Z,96166.87
2019-03-04T08:55:57.808Z,96146.94
2019-03-04T08:58:24.850Z,96156.97
2019-03-04T09:00:51.760Z,96161.75
2019-03-04T09:03:18.959Z,96179.72
2019-03-04T09:05:45.692Z,96180.75
2019-03-04T09:08:14.277Z,96191.16
2019-03-04T09:10:41.287Z,96174.72
2019-03-04T09:13:08.107Z,96124.88
2019-03-04T09:15:34.824Z,96102.89
2019-03-04T09:18:01.358Z,96090.01
2019-03-04T09:20:28.344Z,96080.65
2019-03-04T09:22:55.143Z,96080.58
2019-03-04T09:25:30.932Z,96120.84
2019-03-04T09:27:57.973Z,96109.05
2019-03-04T09:30:29.137Z,96145.47
2019-03-04T09:32:56.133Z,96153.78
2019-03-04T09:35:23.006Z,96140.77
2019-03-04T09:37:50.063Z,96133.67
2019-03-04T09:40:16.795Z,96152.32
2019-03-04T09:42:43.885Z,96134.58
2019-03-04T09:45:11.821Z,96133.95
2019-03-04T09:47:38.818Z,96140.66
2019-03-04T09:50:07.999Z,96112.84
2019-03-04T09:52:34.812Z,96118.77
2019-03-04T09:55:01.978Z,96123.55
2019-03-04T09:57:29.058Z,96139.19
2019-03-04T09:59:56.215Z,96149.62
2019-03-04T10:02:29.632Z,96119.98
2019-03-04T10:05:16.752Z,96133.75
2019-03-04T10:08:32.964Z,96145.84
2019-03-04T10:11:27.285Z,96154.93
2019-03-04T10:14:03.791Z,96165.27
2019-03-04T10:17:14.468Z,96155.48
2019-03-04T10:20:20.275Z,96161.53
2019-03-04T10:23:03.066Z,96157.59
2019-03-04T10:25:52.221Z,96165.22
2019-03-04T10:29:11.821Z,96174.42
2019-03-04T10:32:10.501Z,96186.45
2019-03-04T10:35:12.936Z,96196.89
2019-03-04T10:38:22.298Z,96228.87
2019-03-04T10:41:21.404Z,96309.49
2019-03-04T10:44:13.786Z,96348.82
2019-03-04T10:47:00.270Z,96348.22
2019-03-04T10:49:31.281Z,96356.03
2019-03-04T10:51:58.153Z,96363.55
2019-03-04T10:54:24.761Z,96357.02
2019-03-04T10:56:51.679Z,96347.20
2019-03-04T10:59:18.380Z,96304.13
2019-03-04T11:01:45.219Z,96310.80
2019-03-04T11:04:11.921Z,96298.89
2019-03-04T11:06:38.771Z,96306.31
2019-03-04T11:09:06.802Z,96297.69
2019-03-04T11:11:33.923Z,96286.16
2019-03-04T11:14:00.525Z,96295.64
2019-03-04T11:16:27.647Z,96296.09
2019-03-04T11:18:54.551Z,96284.73
2019-03-04T11:21:21.291Z,96285.70
2019-03-04T11:23:49.052Z,96296.80
2019-03-04T11:26:15.788Z,96298.08
2019-03-04T11:28:42.776Z,96295.34
2019-03-04T11:31:09.511Z,96275.38
2019-03-04T11:33:36.039Z,96268.53
2019-03-04T11:36:05.539Z,96285.33
2019-03-04T11:38:40.560Z,96290.17
2019-03-04T11:41:11.723Z,96269.41
2019-03-04T11:43:38.392Z,96259.56
2019-03-04T11:46:05.158Z,96254.02
2019-03-04T11:48:32.125Z,96251.39
2019-03-04T11:50:58.786Z,96261.88
2019-03-04T11:53:25.569Z,96250.80
2019-03-04T11:55:53.517Z,96248.59
2019-03-04T11:58:21.411Z,96237.63
2019-03-04T12:00:56.652Z,96239.85
2019-03-04T12:03:23.758Z,96229.91
2019-03-04T12:05:50.419Z,96244.75
2019-03-04T12:08:17.177Z,96232.70
2019-03-04T12:10:43.829Z,96245.18
2019-03-04T12:13:10.553Z,96238.75
2019-03-04T12:15:37.268Z,96221.86
2019-03-04T12:18:03.886Z,96217.65
2019-03-04T12:20:30.460Z,96184.42
2019-03-04T12:22:57.213Z,96195.55
2019-03-04T12:25:24.199Z,96179.27
2019-03-04T12:27:51.217Z,96169.47
2019-03-04T12:30:18.041Z,96170.97
2019-03-04T12:32:45.530Z,96173.31
2019-03-04T12:35:12.894Z,96166.42
2019-03-04T12:37:42.713Z,96161.54
2019-03-04T12:40:10.637Z,96162.02
2019-03-04T12:42:37.496Z,96160.94
2019-03-04T12:45:04.554Z,96148.64
2019-03-04T12:47:31.197Z,96129.37
2019-03-04T12:49:57.918Z,96137.80
2019-03-04T12:52:24.663Z,96130.49
2019-03-04T12:55:01.808Z,96122.95
2019-03-04T12:57:28.624Z,96119.04
2019-03-04T12:59:56.767Z,96122.95
2019-03-04T13:02:32.728Z,96114.56
2019-03-04T13:05:01.550Z,96137.10
2019-03-04T13:07:29.059Z,96152.09
2019-03-04T13:09:58.171Z,96168.38
2019-03-04T13:12:24.978Z,96165.66
2019-03-04T13:14:52.384Z,96126.09
2019-03-04T13:17:20.209Z,96158.31
2019-03-04T13:20:03.089Z,96162.92
2019-03-04T13:22:31.372Z,96170.58
2019-03-04T13:25:11.890Z,96143.32
2019-03-04T13:27:32.074Z,96132.50
2019-03-04T13:29:59.048Z,96170.71
2019-03-04T13:32:25.971Z,96167.42
2019-03-04T13:34:52.562Z,96180.58
2019-03-04T13:37:19.472Z,96155.58
2019-03-04T13:39:46.191Z,96151.87
2019-03-04T13:42:14.154Z,96162.45
2019-03-04T13:44:40.911Z,96152.75
2019-03-04T13:47:08.379Z,96159.00
2019-03-04T13:49:35.432Z,96138.25
2019-03-04T13:52:02.225Z,96145.99
2019-03-04T13:54:29.002Z,96115.98
2019-03-04T13:56:57.460Z,96137.52
2019-03-04T13:59:24.238Z,96128.88
2019-03-04T14:01:51.000Z,96119.59
2019-03-04T14:04:17.782Z,96134.22
2019-03-04T14:06:45.163Z,96131.53
2019-03-04T14:09:14.345Z,96128.23
2019-03-04T14:11:41.188Z,96155.31
2019-03-04T14:14:11.833Z,96139.08
2019-03-04T14:16:42.690Z,96140.06
2019-03-04T14:19:14.546Z,96166.23
2019-03-04T14:21:47.795Z,96155.28
2019-03-04T14:24:18.568Z,96171.45
2019-03-04T14:26:50.093Z,96173.41
2019-03-04T14:29:20.816Z,96171.61
2019-03-04T14:31:47.889Z,96152.24
2019-03-04T14:34:14.850Z,96157.50
2019-03-04T14:36:42.493Z,96165.63
2019-03-04T14:39:13.759Z,96180.39
2019-03-04T14:41:41.710Z,96182.65
2019-03-04T14:44:08.579Z,96195.20
2019-03-04T14:46:35.361Z,96211.44
2019-03-04T14:49:02.224Z,96211.23
2019-03-04T14:51:28.992Z,96230.68
2019-03-04T14:53:55.987Z,96256.91
2019-03-04T14:56:22.891Z,96256.03
2019-03-04T14:58:49.773Z,96232.07
2019-03-04T15:01:16.616Z,96252.91
2019-03-04T15:03:43.342Z,96252.14
2019-03-04T15:06:11.561Z,96236.59
2019-03-04T15:08:41.581Z,96238.46
2019-03-04T15:11:08.620Z,96236.89
2019-03-04T15:13:41.233Z,96234.52
2019-03-04T15:16:09.141Z,96245.28
2019-03-04T15:18:35.878Z,96242.98
2019-03-04T15:21:03.755Z,96244.44
2019-03-04T15:23:30.417Z,96249.86
2019-03-04T15:25:57.164Z,96225.54
2019-03-04T15:28:24.132Z,96248.48
2019-03-04T15:30:53.256Z,96249.92
2019-03-04T15:33:20.892Z,96265.48
2019-03-04T15:35:47.585Z,96274.81
2019-03-04T15:38:14.346Z,96264.03
2019-03-04T15:40:41.192Z,96262.25
2019-03-04T15:43:08.151Z,96260.00
2019-03-04T15:45:35.119Z,96274.86
2019-03-04T15:48:01.658Z,96289.81
2019-03-04T15:50:28.368Z,96310.46
2019-03-04T15:52:55.696Z,96302.45
2019-03-04T15:55:22.603Z,96314.02
2019-03-04T15:57:51.074Z,96302.70
2019-03-04T16:00:18.407Z,96326.73
2019-03-04T16:02:45.263Z,96328.03
2019-03-04T16:05:12.052Z,96328.03
2019-03-04T16:07:38.889Z,96333.87
2019-03-04T16:10:07.687Z,96430.89
2019-03-04T16:12:36.366Z,96452.95
2019-03-04T16:15:04.304Z,96469.59
2019-03-04T16:17:31.514Z,96493.80
2019-03-04T16:19:58.600Z,96511.94
2019-03-04T16:22:27.636Z,96508.08
2019-03-04T16:24:54.219Z,96514.59
2019-03-04T16:27:20.864Z,96516.73
2019-03-04T16:29:47.793Z,96527.08
2019-03-04T16:32:14.754Z,96541.98
2019-03-04T16:34:41.998Z,96551.41
2019-03-04T16:37:08.718Z,96538.13
2019-03-04T16:39:35.557Z,96535.75
2019-03-04T16:42:03.585Z,96533.92
2019-03-04T16:44:31.276Z,96527.08
2019-03-04T16:46:57.945Z,96527.45
2019-03-04T16:49:24.667Z,96540.50
2019-03-04T16:51:53.887Z,96539.20
2019-03-04T16:54:20.976Z,96538.06
2019-03-04T16:56:47.704Z,96536.09
2019-03-04T16:59:15.652Z,96535.38
2019-03-04T17:01:43.029Z,96531.66
2019-03-04T17:04:09.579Z,96545.09
2019-03-04T17:06:39.072Z,96556.28
2019-03-04T17:09:14.298Z,96561.43
2019-03-04T17:11:41.065Z,96580.48
2019-03-04T17:14:07.591Z,96574.20
2019-03-04T17:16:34.204Z,96582.53
2019-03-04T17:19:00.883Z,96593.83
2019-03-04T17:21:28.027Z,96608.98
2019-03-04T17:23:55.195Z,96615.41
2019-03-04T17:26:21.783Z,96619.48
2019-03-04T17:28:48.348Z,96632.48
2019-03-04T17:31:15.177Z,96641.82
2019-03-04T17:33:42.877Z,96636.12
2019-03-04T17:36:09.445Z,96642.13
2019-03-04T17:38:36.091Z,96657.88
2019-03-04T17:41:02.639Z,96665.67
2019-03-04T17:43:29.474Z,96668.98
2019-03-04T17:45:56.351Z,96654.42
2019-03-04T17:48:22.939Z,96653.92
2019-03-04T17:50:49.485Z,96655.73
2019-03-04T17:53:16.132Z,96648.83
2019-03-04T17:55:42.715Z,96653.02
2019-03-04T17:58:09.281Z,96654.33
2019-03-04T18:00:37.412Z,96647.75
2019-03-04T18:03:05.397Z,96648.95
2019-03-04T18:05:32.030Z,96664.39
2019-03-04T18:07:58.561Z,96676.99
2019-03-04T18:10:25.149Z,96663.89
2019-03-04T18:12:53.265Z,96676.99
2019-03-04T18:15:20.389Z,96670.06
2019-03-04T18:17:47.176Z,96673.61
2019-03-04T18:20:14.803Z,96671.56
2019-03-04T18:22:41.599Z,96686.27
2019-03-04T18:25:12.479Z,96683.33
2019-03-04T18:27:47.041Z,96673.53
2019-03-04T18:30:29.895Z,96673.03
2019-03-04T18:33:34.233Z,96683.44
2019-03-04T18:36:18.448Z,96685.53
2019-03-04T18:39:19.212Z,96689.30
2019-03-04T18:42:09.301Z,96711.41
2019-03-04T18:45:08.817Z,96711.41
2019-03-04T18:48:15.982Z,96715.25
2019-03-04T18:50:42.764Z,96721.80
2019-03-04T18:53:09.577Z,96730.55
2019-03-04T18:55:37.626Z,96738.66
2019-03-04T18:58:04.309Z,96752.02
2019-03-04T19:00:31.945Z,96753.01
2019-03-04T19:02:58.674Z,96768.56
2019-03-04T19:05:25.670Z,96763.50
2019-03-04T19:07:52.333Z,96770.84
2019-03-04T19:10:19.121Z,96777.30
2019-03-04T19:12:46.144Z,96781.20
2019-03-04T19:15:12.858Z,96792.81
2019-03-04T19:17:43.671Z,96796.41
2019-03-04T19:20:11.425Z,96797.77
2019-03-04T19:22:38.424Z,96809.48
2019-03-04T19:25:05.706Z,96815.08
2019-03-04T19:27:32.697Z,96825.17
2019-03-04T19:29:59.607Z,96825.98
2019-03-04T19:32:26.378Z,96822.08
2019-03-04T19:34:53.066Z,96828.08
2019-03-04T19:37:19.875Z,96825.48
2019-03-04T19:39:46.758Z,96830.87
2019-03-04T19:42:14.811Z,96833.38
2019-03-04T19:44:41.981Z,96842.48
2019-03-04T19:47:08.832Z,96840.93
2019-03-04T19:49:35.652Z,96843.58
2019-03-04T19:52:03.648Z,96846.63
2019-03-04T19:54:30.583Z,96844.97
2019-03-04T19:56:57.378Z,96849.13
2019-03-04T19:59:24.814Z,96837.92
2019-03-04T20:01:54.045Z,96846.48
2019-03-04T20:04:20.945Z,96844.77
2019-03-04T20:06:48.157Z,96849.93
2019-03-04T20:09:14.970Z,96842.83
2019-03-04T20:11:41.991Z,96843.95
2019-03-04T20:14:09.138Z,96848.23
2019-03-04T20:16:36.039Z,96847.78
2019-03-04T20:19:03.230Z,96858.19
2019-03-04T20:21:29.953Z,96862.55
2019-03-04T20:23:57.013Z,96848.25
2019-03-04T20:26:24.030Z,96854.80
2019-03-04T20:28:51.065Z,96856.39
2019-03-04T20:31:18.914Z,96860.34
2019-03-04T20:33:47.335Z,96864.30
2019-03-04T20:36:30.844Z,96872.05
2019-03-04T20:39:18.365Z,96877.52
2019-03-04T20:41:49.313Z,96871.22
2019-03-04T20:44:21.004Z,96892.08
2019-03-04T20:46:57.161Z,96884.22
2019-03-04T20:49:26.103Z,96892.33
2019-03-04T20:52:03.531Z,96884.48
2019-03-04T20:54:32.820Z,96892.27
2019-03-04T20:57:07.947Z,96887.22
2019-03-04T20:59:38.540Z,96895.02
2019-03-04T21:02:18.740Z,96911.35
2019-03-04T21:05:00.457Z,96913.94
2019-03-04T21:07:28.022Z,96915.69
2019-03-04T21:09:54.985Z,96920.06
2019-03-04T21:12:23.860Z,96929.36
2019-03-04T21:15:18.925Z,96931.08
2019-03-04T21:17:51.814Z,96931.63
2019-03-04T21:20:19.960Z,96936.02
2019-03-04T21:22:46.990Z,96942.93
2019-03-04T21:25:33.196Z,96950.24
2019-03-04T21:28:10.360Z,96943.23
2019-03-04T21:31:13.473Z,96958.14
2019-03-04T21:34:11.272Z,96957.73
2019-03-04T21:37:11.661Z,96964.24
2019-03-04T21:39:45.391Z,96979.11
2019-03-04T21:42:22.004Z,96973.19
2019-03-04T21:45:36.738Z,96985.48
2019-03-04T21:48:11.213Z,96988.08
2019-03-04T21:50:47.113Z,96995.27
2019-03-04T21:53:18.058Z,96999.92
2019-03-04T21:56:15.783Z,97013.84
2019-03-04T21:58:43.976Z,97024.83
2019-03-04T22:01:23.706Z,97031.42
2019-03-04T22:03:50.642Z,97029.00
2019-03-04T22:06:17.775Z,97033.80
2019-03-04T22:08:44.385Z,97033.44
2019-03-04T22:11:11.078Z,97034.61
2019-03-04T22:13:37.728Z,97036.67
2019-03-04T22:16:04.525Z,97040.57
2019-03-04T22:18:32.036Z,97046.19
2019-03-04T22:20:58.855Z,97052.01
2019-03-04T22:23:26.242Z,97048.02
2019-03-04T22:26:01.904Z,97040.12
2019-03-04T22:28:23.766Z,97049.32
2019-03-04T22:30:53.271Z,97037.88
2019-03-04T22:33:20.415Z,97036.09
2019-03-04T22:35:47.068Z,97037.48
2019-03-04T22:38:13.866Z,97037.08
2019-03-04T22:40:40.698Z,97029.31
2019-03-04T22:43:07.332Z,97041.92
2019-03-04T22:45:33.994Z,97035.83
2019-03-04T22:48:00.624Z,97036.72
2019-03-04T22:50:30.165Z,97035.02
2019-03-04T22:52:56.845Z,97030.58
2019-03-04T22:55:28.609Z,97029.59
2019-03-04T22:57:55.415Z,97020.56
2019-03-04T23:01:29.004Z,97017.55
2019-03-04T23:04:20.087Z,97028.87
2019-03-04T23:06:51.425Z,97027.44
2019-03-04T23:09:18.596Z,97029.31
2019-03-04T23:11:50.331Z,97039.45
2019-03-04T23:14:21.834Z,97039.53
2019-03-04T23:16:49.378Z,97040.02
2019-03-04T23:19:15.957Z,97046.00
2019-03-04T23:21:42.568Z,97043.80
2019-03-04T23:24:09.242Z,97041.77
2019-03-04T23:26:36.014Z,97045.67
2019-03-04T23:29:02.785Z,97017.83
2019-03-04T23:31:29.865Z,97038.59
2019-03-04T23:33:56.669Z,97022.09
2019-03-04T23:36:23.359Z,97025.50
2019-03-04T23:38:49.921Z,97014.60
2019-03-04T23:41:21.290Z,97015.98
2019-03-04T23:46:28.860Z,97010.66
2019-03-04T23:48:55.455Z,97002.21
2019-03-04T23:51:22.004Z,97006.92
2019-03-04T23:53:49.585Z,97018.05
2019-03-04T23:56:16.554Z,97004.23
2019-03-04T23:58:43.198Z,96992.02
